Time;durP1;ratioP1;P1;durP2;ratioP2;P2;SDS_P1;SDS_P2;PMS_P1;PMS_P2;Temp;Humidity;BMP_temperature;BMP_pressure;BME280_temperature;BME280_humidity;BME280_pressure;Samples;Min_cycle;Max_cycle;Signal;HPM_P1;HPM_P2
2022/02/09 00:09:20;;;;;;;2.63;1.70;;;;;;;21.07;29.77;98748.25;5005701;28;20379;-85
2022/02/09 00:11:51;;;;;;;3.53;2.08;;;;;;;20.44;30.97;98757.25;5011600;28;20121;-86
2022/02/09 00:14:28;;;;;;;1.88;1.35;;;;;;;20.97;30.34;98768.53;5005729;28;20038;-86
2022/02/09 00:19:29;;;;;;;2.45;1.20;;;;;;;20.96;30.14;98770.50;5009015;28;20044;-86
2022/02/09 00:22:23;;;;;;;1.83;1.58;;;;;;;20.55;30.88;98777.59;5004998;28;20042;-86
2022/02/09 00:27:49;;;;;;;2.42;1.75;;;;;;;21.95;28.86;98773.34;5006986;28;20093;-86
2022/02/09 00:32:58;;;;;;;2.45;1.63;;;;;;;20.55;31.13;98781.19;5010208;28;20401;-87
2022/02/09 00:38:43;;;;;;;3.08;2.22;;;;;;;18.96;33.83;98784.84;5009772;28;20060;-87
2022/02/09 01:38:34;;;;;;;3.55;1.92;;;;;;;20.82;30.48;98839.47;5012954;28;20130;-87
2022/02/09 01:56:58;;;;;;;3.33;2.20;;;;;;;22.13;28.50;98846.00;5007728;28;20111;-87
2022/02/09 01:59:25;;;;;;;2.15;1.95;;;;;;;21.50;29.01;98844.00;5007101;28;20036;-86
2022/02/09 02:01:51;;;;;;;4.53;2.25;;;;;;;22.03;28.57;98845.63;5008313;28;20057;-87
2022/02/09 02:04:22;;;;;;;3.10;2.22;;;;;;;22.01;28.37;98858.41;5009533;28;20192;-87
2022/02/09 02:06:50;;;;;;;2.10;1.80;;;;;;;22.79;27.16;98850.63;5004989;28;20061;-86
2022/02/09 02:09:16;;;;;;;2.58;2.08;;;;;;;22.29;28.09;98858.34;5008350;28;20034;-87
2022/02/09 02:11:51;;;;;;;4.28;2.03;;;;;;;21.99;28.44;98861.59;5005950;28;20074;-87
2022/02/09 02:14:42;;;;;;;2.53;2.08;;;;;;;21.28;29.71;98871.91;5006546;28;22931;-87
2022/02/09 02:17:20;;;;;;;3.25;2.05;;;;;;;22.60;27.82;98862.25;5004808;28;20129;-87
2022/02/09 02:19:51;;;;;;;3.03;1.95;;;;;;;23.77;26.06;98870.84;5008048;28;20037;-87
2022/02/09 03:12:55;;;;;;;3.80;2.95;;;;;;;23.33;26.26;98879.94;5003045;28;20133;-87
2022/02/09 03:15:43;;;;;;;3.78;2.75;;;;;;;23.53;26.03;98892.25;5006694;28;20417;-86
2022/02/09 03:23:45;;;;;;;1.92;1.73;;;;;;;21.37;29.33;98912.66;5006960;28;20089;-87
2022/02/09 03:58:17;;;;;;;2.05;1.73;;;;;;;23.41;26.26;98911.56;5013637;28;20046;-87
2022/02/09 04:00:45;;;;;;;3.75;3.10;;;;;;;23.65;25.56;98905.78;5003092;28;20033;-87
2022/02/09 04:03:15;;;;;;;3.05;2.40;;;;;;;23.79;25.67;98914.09;5004398;28;20038;-87
2022/02/09 04:05:41;;;;;;;2.35;2.15;;;;;;;24.05;25.56;98899.47;5008013;28;20139;-87
2022/02/09 04:08:12;;;;;;;2.10;1.90;;;;;;;24.15;25.02;98911.84;5006645;28;20245;-87
2022/02/09 04:10:44;;;;;;;3.25;1.95;;;;;;;24.66;24.50;98913.72;5005473;28;20034;-87
2022/02/09 04:13:19;;;;;;;2.15;1.95;;;;;;;24.49;24.94;98909.88;5015680;28;20026;-88
2022/02/09 04:16:37;;;;;;;2.15;1.95;;;;;;;24.56;24.45;98904.19;5008859;28;20434;-87
2022/02/09 04:40:53;;;;;;;2.28;1.85;;;;;;;23.48;26.03;98912.28;5000741;28;20548;-88
2022/02/09 04:49:35;;;;;;;2.00;1.90;;;;;;;23.65;25.73;98910.59;5006573;28;20034;-88
2022/02/09 04:52:24;;;;;;;1.70;1.60;;;;;;;23.91;25.30;98918.41;5008819;28;20096;-88
2022/02/09 04:54:59;;;;;;;2.03;1.77;;;;;;;23.94;25.03;98923.97;4999263;28;20046;-88
2022/02/09 05:00:17;;;;;;;1.80;1.60;;;;;;;23.76;25.57;98920.53;5008302;28;20117;-88
2022/02/09 05:03:29;;;;;;;2.08;1.70;;;;;;;24.43;24.79;98907.94;5005332;28;20515;-87
2022/02/09 05:30:07;;;;;;;2.47;1.73;;;;;;;24.05;24.88;98935.94;5003094;28;20040;-87
2022/02/09 05:32:33;;;;;;;3.67;2.20;;;;;;;23.43;25.74;98920.34;5010988;28;20030;-87
2022/02/09 05:34:59;;;;;;;2.58;1.70;;;;;;;23.20;26.28;98926.44;5000823;28;20038;-87
2022/02/09 05:37:25;;;;;;;3.63;1.83;;;;;;;23.70;25.56;98926.97;5010093;28;20030;-87
2022/02/09 05:39:51;;;;;;;3.33;1.80;;;;;;;23.70;25.34;98932.59;5004935;28;20029;-87
2022/02/09 05:42:17;;;;;;;3.85;1.80;;;;;;;23.61;25.72;98932.25;5008574;28;20034;-88
2022/02/09 05:44:44;;;;;;;3.58;2.08;;;;;;;23.97;25.23;98927.97;5004241;28;20018;-88
2022/02/09 05:50:00;;;;;;;6.47;2.83;;;;;;;23.34;25.86;98929.16;5007061;28;20536;-87
2022/02/09 05:52:42;;;;;;;3.92;2.30;;;;;;;23.40;25.94;98935.97;5010203;28;20065;-87
2022/02/09 05:55:37;;;;;;;4.40;2.17;;;;;;;23.59;25.92;98932.66;5013463;28;20091;-88
2022/02/09 05:58:09;;;;;;;6.50;3.20;;;;;;;23.45;25.87;98932.75;5009538;28;20045;-88
2022/02/09 06:00:36;;;;;;;3.85;2.50;;;;;;;23.52;25.66;98952.34;5007830;28;20030;-88
2022/02/09 06:03:02;;;;;;;4.05;2.38;;;;;;;23.61;25.55;98949.06;5016377;28;20050;-87
2022/02/09 06:05:31;;;;;;;3.38;2.58;;;;;;;23.10;26.37;98958.13;5005306;28;20181;-87
2022/02/09 06:07:57;;;;;;;4.32;2.60;;;;;;;23.97;25.28;98958.81;5007656;28;20041;-88
2022/02/09 06:10:28;;;;;;;4.93;3.30;;;;;;;24.87;24.07;98947.22;5006145;28;20038;-88
2022/02/09 06:13:10;;;;;;;5.00;3.47;;;;;;;24.50;24.63;98958.41;5005919;28;20030;-88
2022/02/09 06:16:06;;;;;;;4.35;2.83;;;;;;;24.50;24.64;98964.03;5007661;28;20058;-88
2022/02/09 06:21:19;;;;;;;5.63;3.72;;;;;;;24.38;24.99;98964.53;5011077;28;20053;-86
2022/02/09 06:23:47;;;;;;;6.55;3.83;;;;;;;24.64;24.45;98961.09;5012339;28;20041;-85
2022/02/09 06:26:13;;;;;;;5.13;2.70;;;;;;;23.75;25.81;98972.22;5009877;28;20041;-85
2022/02/09 06:28:39;;;;;;;3.92;2.78;;;;;;;24.23;25.26;98966.66;5003857;28;20096;-82
2022/02/09 06:31:05;;;;;;;5.53;3.20;;;;;;;24.32;25.38;98969.00;5011609;28;20038;-86
2022/02/09 06:33:32;;;;;;;4.57;2.97;;;;;;;24.06;25.25;98964.81;5015507;28;20030;-86
2022/02/09 06:36:00;;;;;;;6.28;3.33;;;;;;;23.94;25.69;98956.88;5015290;28;20038;-86
2022/02/09 06:38:27;;;;;;;3.80;2.25;;;;;;;23.86;25.69;98958.91;5015328;28;20037;-85
2022/02/09 06:40:56;;;;;;;6.00;3.60;;;;;;;24.09;25.32;98966.78;5017272;28;20070;-85
2022/02/09 06:43:22;;;;;;;5.93;3.08;;;;;;;25.00;24.33;98961.50;5010120;28;20038;-86
2022/02/09 06:45:48;;;;;;;5.65;3.50;;;;;;;24.88;24.52;98971.25;5008361;28;20516;-86
2022/02/09 06:48:17;;;;;;;6.18;3.55;;;;;;;25.54;23.63;98968.06;5006581;28;20038;-84
2022/02/09 06:50:53;;;;;;;4.90;2.75;;;;;;;25.23;23.97;98964.44;5011387;28;20046;-85
2022/02/09 06:55:57;;;;;;;6.75;3.97;;;;;;;24.02;25.56;98964.81;5011197;28;20037;-85
2022/02/09 07:01:17;;;;;;;6.03;4.10;;;;;;;24.12;25.52;98956.75;4989217;28;20045;-85
2022/02/09 07:03:43;;;;;;;5.93;2.85;;;;;;;23.91;25.96;98968.91;5013852;28;20366;-85
2022/02/09 07:06:09;;;;;;;6.60;4.03;;;;;;;23.25;26.65;98968.84;5014542;28;20397;-84
2022/02/09 07:08:35;;;;;;;6.55;3.78;;;;;;;23.02;27.08;98962.13;5008776;28;20037;-84
2022/02/09 07:11:01;;;;;;;5.78;3.88;;;;;;;24.02;26.02;98969.59;5003848;28;20041;-84
2022/02/09 07:13:27;;;;;;;6.30;3.20;;;;;;;24.28;25.68;98971.03;5019831;28;20478;-85
2022/02/09 07:15:55;;;;;;;4.65;3.97;;;;;;;24.09;25.80;98961.16;5007089;28;20131;-85
2022/02/09 07:18:23;;;;;;;5.03;3.03;;;;;;;24.69;25.24;98963.44;5006662;28;20026;-84
2022/02/09 07:24:00;;;;;;;3.92;2.72;;;;;;;23.66;26.40;98960.66;5002781;28;20398;-85
2022/02/09 07:26:10;;;;;;;4.07;3.15;;;;;;;24.03;25.84;98969.22;5000674;28;20559;-84
2022/02/09 07:28:37;;;;;;;5.40;3.25;;;;;;;24.13;25.94;98975.19;5004131;28;20026;-84
2022/02/09 07:31:07;;;;;;;3.25;2.95;;;;;;;24.27;25.66;98972.25;5004519;28;20553;-84
2022/02/09 07:33:37;;;;;;;6.78;3.30;;;;;;;23.51;26.82;98975.16;5005503;28;20038;-84
2022/02/09 07:36:05;;;;;;;3.90;3.10;;;;;;;24.68;25.32;98967.44;5000051;28;20038;-84
2022/02/09 07:38:31;;;;;;;4.53;2.80;;;;;;;24.90;24.89;98971.63;5010082;28;20037;-84
2022/02/09 07:40:59;;;;;;;5.05;2.47;;;;;;;24.41;25.50;98970.09;4999500;28;20035;-86
2022/02/09 07:54:10;;;;;;;4.85;3.28;;;;;;;22.94;27.60;98982.97;5009113;28;20050;-84
2022/02/09 07:56:39;;;;;;;2.70;2.25;;;;;;;23.68;26.62;98982.66;5004797;28;20033;-85
2022/02/09 07:59:08;;;;;;;6.97;3.17;;;;;;;23.73;26.69;98985.06;5009597;28;20034;-84
2022/02/09 08:01:35;;;;;;;3.22;2.47;;;;;;;24.57;25.62;98983.63;5008313;28;20045;-84
2022/02/09 08:04:01;;;;;;;3.40;2.88;;;;;;;23.78;26.50;98981.81;5015040;28;20048;-84
2022/02/09 08:06:27;;;;;;;3.47;1.75;;;;;;;23.86;26.75;98977.75;5016616;28;20053;-84
2022/02/09 08:09:02;;;;;;;5.07;2.45;;;;;;;24.51;25.72;98979.66;5017568;28;20493;-84
2022/02/09 08:11:36;;;;;;;4.05;2.78;;;;;;;24.72;25.39;98969.00;5009100;28;20058;-84
2022/02/09 08:30:21;;;;;;;2.20;1.70;;;;;;;24.57;26.54;98967.56;5002220;28;20159;-84
2022/02/09 08:33:04;;;;;;;2.78;1.52;;;;;;;24.35;26.49;98973.78;5004454;28;20032;-84
2022/02/09 08:35:30;;;;;;;2.60;1.70;;;;;;;25.42;25.53;98956.16;5018810;28;20030;-84
2022/02/09 08:37:58;;;;;;;3.33;1.80;;;;;;;25.55;25.17;98966.88;5014672;28;20117;-84
2022/02/09 08:40:26;;;;;;;1.90;1.80;;;;;;;25.18;25.60;98967.72;5007162;28;20038;-84
2022/02/09 08:42:53;;;;;;;1.70;1.60;;;;;;;24.34;26.56;98975.00;5000497;28;20080;-84
2022/02/09 08:45:20;;;;;;;2.08;1.42;;;;;;;24.34;26.95;98972.19;5008293;28;20026;-84
2022/02/09 08:47:47;;;;;;;2.75;1.73;;;;;;;24.26;26.78;98977.06;5012986;28;20460;-84
2022/02/09 08:50:14;;;;;;;1.33;1.23;;;;;;;24.13;27.14;98969.56;5004776;28;20466;-84
2022/02/09 08:52:41;;;;;;;1.80;1.35;;;;;;;24.65;26.42;98979.50;5001424;28;20030;-84
2022/02/09 08:55:09;;;;;;;1.80;1.48;;;;;;;24.92;25.89;98977.66;5007906;28;20030;-84
2022/02/09 08:57:35;;;;;;;1.45;1.00;;;;;;;25.94;25.05;98972.72;5013910;28;20068;-84
2022/02/09 09:00:12;;;;;;;2.03;1.33;;;;;;;24.51;26.41;98968.41;5014381;28;20478;-84
2022/02/09 09:02:43;;;;;;;2.45;0.85;;;;;;;23.59;28.17;98974.72;5003515;28;20116;-84
2022/02/09 09:05:16;;;;;;;;;;;;;;;23.26;28.40;98976.06;5020216;28;20026;-84
2022/02/09 09:07:47;;;;;;;2.75;1.30;;;;;;;22.39;29.85;98972.25;5013885;28;19972;-84
2022/02/09 09:10:25;;;;;;;1.95;1.00;;;;;;;22.82;29.51;98966.63;5009936;28;20112;-84
2022/02/09 09:16:43;;;;;;;1.25;1.10;;;;;;;22.47;29.74;98976.66;5009266;28;20607;-84
2022/02/09 10:02:49;;;;;;;1.25;0.80;;;;;;;22.41;29.76;98983.84;5007853;28;20053;-84
2022/02/09 10:34:17;;;;;;;1.33;1.00;;;;;;;22.42;29.90;98965.88;5007698;28;20040;-84
2022/02/09 10:36:57;;;;;;;1.98;1.17;;;;;;;23.15;29.20;98952.09;5008123;28;20031;-85
2022/02/09 10:39:48;;;;;;;1.70;1.15;;;;;;;23.86;28.63;98952.50;5011770;28;20441;-85
2022/02/09 10:44:51;;;;;;;1.08;0.77;;;;;;;24.22;27.78;98944.63;5015583;28;20049;-83
2022/02/09 10:47:36;;;;;;;1.77;0.85;;;;;;;24.12;27.48;98932.28;5016297;28;20025;-83
2022/02/09 10:50:26;;;;;;;1.17;0.95;;;;;;;23.10;28.89;98938.50;5016324;28;20041;-83
2022/02/09 10:52:54;;;;;;;1.10;0.80;;;;;;;23.00;28.81;98925.34;5008513;28;20034;-83
2022/02/09 10:55:39;;;;;;;1.27;0.75;;;;;;;22.72;29.85;98936.63;5010063;28;20033;-83
2022/02/09 10:58:17;;;;;;;2.17;1.00;;;;;;;23.66;27.93;98904.59;5006266;28;20026;-83
2022/02/09 11:00:46;;;;;;;1.00;0.90;;;;;;;23.41;28.54;98931.19;5005817;28;20029;-81
2022/02/09 11:03:25;;;;;;;1.10;0.80;;;;;;;23.61;27.94;98929.44;5015836;28;20121;-83
2022/02/09 11:05:55;;;;;;;1.30;0.70;;;;;;;24.01;27.85;98925.94;5011519;28;20076;-83
2022/02/09 11:08:21;;;;;;;0.90;0.70;;;;;;;24.49;27.22;98925.94;5003745;28;20059;-83
2022/02/09 11:10:51;;;;;;;1.67;1.10;;;;;;;24.02;27.69;98919.91;5007867;28;20042;-83
2022/02/09 11:13:17;;;;;;;1.27;0.70;;;;;;;23.36;29.13;98932.41;5016572;28;20034;-85
2022/02/09 11:15:49;;;;;;;1.10;0.80;;;;;;;22.81;29.24;98928.59;5023588;28;20029;-83
2022/02/09 11:18:19;;;;;;;1.08;0.80;;;;;;;22.38;30.10;98939.09;5018612;28;20029;-83
2022/02/09 11:20:58;;;;;;;;;;;;;;;22.73;28.88;98932.66;5010570;28;20038;-83
2022/02/09 11:23:37;;;;;;;1.77;1.20;;;;;;;23.35;29.00;98930.81;5006383;28;19976;-82
2022/02/09 11:26:10;;;;;;;1.17;0.80;;;;;;;24.24;27.80;98937.41;5008373;28;20034;-83
2022/02/09 11:28:42;;;;;;;2.30;1.48;;;;;;;24.07;27.73;98926.31;5001199;28;20534;-82
2022/02/09 11:31:21;;;;;;;1.27;0.93;;;;;;;24.70;26.43;98926.50;5008241;28;20502;-81
2022/02/09 11:34:04;;;;;;;1.45;0.95;;;;;;;24.45;26.42;98913.94;5002217;28;20026;-83
2022/02/09 11:36:39;;;;;;;1.50;1.00;;;;;;;23.65;27.94;98911.38;5011441;28;20133;-82
2022/02/09 11:39:19;;;;;;;2.05;1.15;;;;;;;24.08;27.15;98909.09;5004791;28;20022;-82
2022/02/09 11:42:10;;;;;;;2.08;1.48;;;;;;;24.46;26.86;98901.47;5020486;28;20444;-82
2022/02/09 11:45:20;;;;;;;3.95;1.50;;;;;;;23.78;27.60;98909.69;5010460;28;20474;-82
2022/02/09 11:50:47;;;;;;;1.70;1.40;;;;;;;22.69;29.46;98922.25;5010802;28;20049;-84
2022/02/09 12:09:26;;;;;;;2.00;1.30;;;;;;;22.95;28.28;98911.75;5014226;28;20107;-82
2022/02/09 12:11:53;;;;;;;3.53;1.50;;;;;;;24.34;26.72;98910.44;5013033;28;20120;-82
2022/02/09 12:15:32;;;;;;;3.97;1.35;;;;;;;24.23;26.34;98918.16;5013505;28;20533;-82
2022/02/09 12:18:23;;;;;;;1.80;0.85;;;;;;;23.39;27.36;98920.38;5013987;28;20370;-82
2022/02/09 12:20:58;;;;;;;1.83;1.13;;;;;;;23.99;27.53;98928.38;5007921;28;20045;-82
2022/02/09 12:23:36;;;;;;;1.92;0.93;;;;;;;25.27;25.10;98911.78;5024816;28;20089;-82
2022/02/09 12:26:08;;;;;;;1.20;1.00;;;;;;;25.47;25.04;98923.19;5006636;28;20037;-82
2022/02/09 12:28:38;;;;;;;1.20;0.90;;;;;;;26.13;24.35;98912.94;5010356;28;20095;-82
2022/02/09 12:31:07;;;;;;;2.80;0.95;;;;;;;24.93;25.61;98919.44;5008817;28;20037;-83
2022/02/09 12:33:39;;;;;;;1.20;0.98;;;;;;;25.74;24.21;98921.19;5012963;28;20026;-82
2022/02/09 12:36:12;;;;;;;1.60;0.80;;;;;;;25.15;25.39;98918.78;5005052;28;20053;-82
2022/02/09 12:38:38;;;;;;;1.02;0.90;;;;;;;25.08;25.01;98912.44;5006038;28;20026;-82
2022/02/09 12:41:16;;;;;;;1.13;0.85;;;;;;;24.90;25.41;98914.69;5006089;28;20053;-82
2022/02/09 12:43:46;;;;;;;2.65;1.02;;;;;;;24.82;25.23;98915.97;5004239;28;20694;-82
2022/02/09 12:46:13;;;;;;;2.78;1.08;;;;;;;25.06;24.53;98904.44;5007244;28;20492;-82
2022/02/09 12:48:39;;;;;;;3.10;2.17;;;;;;;23.76;26.48;98903.69;5013017;28;20033;-82
2022/02/09 12:51:06;;;;;;;1.45;0.85;;;;;;;23.20;27.77;98906.81;5013010;28;20049;-82
2022/02/09 12:53:32;;;;;;;1.20;1.10;;;;;;;24.27;26.09;98916.13;5010864;28;20117;-82
2022/02/09 12:55:58;;;;;;;2.33;1.10;;;;;;;25.41;24.56;98909.56;5008964;28;20508;-82
2022/02/09 12:58:25;;;;;;;1.80;1.30;;;;;;;25.21;25.28;98905.84;5001182;28;20030;-82
2022/02/09 13:00:53;;;;;;;0.80;0.80;;;;;;;25.02;24.93;98900.84;5005016;28;20034;-82
2022/02/09 13:03:22;;;;;;;0.95;0.90;;;;;;;26.15;24.04;98910.47;5010070;28;20088;-82
2022/02/09 13:05:57;;;;;;;1.00;0.80;;;;;;;26.64;23.11;98906.75;5000141;28;20056;-82
2022/02/09 13:08:26;;;;;;;2.20;1.20;;;;;;;26.47;23.55;98909.91;5004727;28;20034;-82
2022/02/09 13:11:14;;;;;;;1.60;1.30;;;;;;;26.90;22.83;98902.25;5004892;28;20045;-82
2022/02/09 13:13:42;;;;;;;12.43;7.57;;;;;;;26.83;22.65;98912.88;5005932;28;20037;-82
2022/02/09 13:18:58;;;;;;;8.57;4.93;;;;;;;27.07;23.03;98914.41;4999008;28;20042;-82
2022/02/09 14:52:41;;;;;;;4.22;2.10;;;;;;;27.82;20.61;98909.47;5009856;28;19928;-82
2022/02/09 14:57:52;;;;;;;3.58;1.98;;;;;;;27.94;20.85;98899.50;5002773;28;20064;-83
2022/02/09 15:00:22;;;;;;;3.17;2.08;;;;;;;27.98;20.67;98906.66;5009459;28;20119;-84
2022/02/09 15:03:00;;;;;;;3.53;1.85;;;;;;;28.15;20.73;98913.13;5009276;28;20056;-83
2022/02/09 15:10:45;;;;;;;2.63;1.77;;;;;;;28.13;20.38;98909.97;5009372;28;20077;-83
2022/02/09 15:13:30;;;;;;;3.25;2.08;;;;;;;27.78;20.42;98910.78;5005506;28;20398;-82
2022/02/09 15:24:08;;;;;;;4.28;1.85;;;;;;;26.99;21.45;98916.56;5010246;28;20057;-83
2022/02/09 15:26:35;;;;;;;3.58;1.95;;;;;;;26.42;21.92;98922.47;5009165;28;20165;-82
2022/02/09 15:29:01;;;;;;;2.42;2.08;;;;;;;26.66;21.82;98921.22;5006259;28;20038;-83
2022/02/09 15:31:40;;;;;;;3.00;1.50;;;;;;;27.09;21.48;98914.75;5007919;28;20037;-83
2022/02/09 15:34:22;;;;;;;3.95;2.55;;;;;;;27.16;20.98;98915.41;5008937;28;20420;-82
2022/02/09 15:36:58;;;;;;;5.65;2.72;;;;;;;26.72;21.29;98929.97;5009077;28;20044;-84
2022/02/09 15:39:25;;;;;;;4.55;2.20;;;;;;;26.97;21.21;98913.38;5009474;28;20084;-84
2022/02/09 15:42:06;;;;;;;3.13;2.47;;;;;;;27.37;20.76;98912.16;5011024;28;20478;-84
2022/02/09 16:17:55;;;;;;;5.55;3.63;;;;;;;26.33;21.47;98910.16;5006999;28;20517;-83
2022/02/09 16:22:50;;;;;;;3.40;2.50;;;;;;;26.37;21.20;98906.06;5006367;28;20531;-83
2022/02/09 16:36:44;;;;;;;4.38;2.80;;;;;;;25.71;21.57;98925.63;4997529;28;20049;-83
2022/02/09 16:46:56;;;;;;;4.40;3.00;;;;;;;26.28;20.63;98910.66;5006157;28;20425;-83
2022/02/09 16:49:43;;;;;;;3.75;2.20;;;;;;;26.30;21.17;98911.81;5010328;28;20025;-83
2022/02/09 16:52:21;;;;;;;3.50;1.98;;;;;;;26.57;20.70;98914.53;5000448;28;20069;-83
2022/02/09 17:19:00;;;;;;;4.38;2.15;;;;;;;26.58;20.18;98919.75;5009699;28;20594;-83
2022/02/09 17:21:28;;;;;;;3.00;2.05;;;;;;;26.81;20.18;98920.97;5005569;28;20085;-83
2022/02/09 17:24:02;;;;;;;3.50;2.20;;;;;;;26.79;20.26;98918.59;5006319;28;20076;-83
2022/02/09 17:26:29;;;;;;;3.38;2.05;;;;;;;26.77;20.15;98914.63;5005233;28;20041;-82
2022/02/09 17:29:03;;;;;;;2.85;2.38;;;;;;;26.66;20.07;98915.56;5004339;28;20033;-83
2022/02/09 17:37:09;;;;;;;3.55;2.75;;;;;;;25.85;21.11;98921.81;5005165;28;20490;-83
2022/02/09 17:53:26;;;;;;;5.20;3.58;;;;;;;26.81;20.21;98918.16;5011487;28;20052;-83
2022/02/09 17:56:01;;;;;;;4.57;3.55;;;;;;;26.42;20.57;98918.88;5005603;28;20042;-83
2022/02/09 17:58:37;;;;;;;4.47;2.85;;;;;;;26.24;20.72;98919.16;5008203;28;20049;-83
2022/02/09 18:01:04;;;;;;;5.93;3.85;;;;;;;26.66;20.33;98918.38;5006328;28;20040;-83
2022/02/09 18:03:31;;;;;;;7.15;4.45;;;;;;;26.20;20.92;98918.44;5004836;28;20073;-83
2022/02/09 18:06:13;;;;;;;6.85;4.10;;;;;;;25.84;20.92;98914.56;5004561;28;20049;-83
2022/02/09 18:08:51;;;;;;;4.93;3.15;;;;;;;26.45;20.79;98923.63;5008118;28;20120;-83
2022/02/09 18:30:21;;;;;;;4.90;2.83;;;;;;;26.77;20.38;98918.19;5013684;28;20049;-83
2022/02/09 18:33:24;;;;;;;7.10;4.22;;;;;;;26.59;20.61;98915.72;5006445;28;20042;-82
2022/02/09 18:56:55;;;;;;;4.30;2.45;;;;;;;26.68;20.66;98901.03;5030150;28;20558;-83
2022/02/09 18:58:04;;;;;;;13.73;6.72;;;;;;;26.85;20.37;98888.66;5006474;28;20041;-82
2022/02/09 19:03:26;;;;;;;7.55;5.25;;;;;;;26.82;20.03;98889.53;5013346;28;20626;-81
2022/02/09 19:05:35;;;;;;;7.15;4.13;;;;;;;26.90;20.47;98901.47;5003186;28;20067;-82
2022/02/09 19:19:02;;;;;;;5.35;2.97;;;;;;;27.03;20.02;98916.47;5008373;28;20069;-82
2022/02/09 19:27:38;;;;;;;6.13;3.28;;;;;;;26.22;20.75;98924.44;5004108;28;20456;-83
2022/02/09 19:32:33;;;;;;;6.22;3.17;;;;;;;25.20;22.25;98921.13;5014784;28;20083;-85
2022/02/09 19:40:51;;;;;;;5.90;3.13;;;;;;;24.55;22.78;98922.25;5007351;28;20410;-83
2022/02/09 19:46:30;;;;;;;7.65;4.72;;;;;;;24.59;22.85;98919.41;5010221;28;20065;-83
2022/02/09 19:49:31;;;;;;;9.35;4.93;;;;;;;24.70;22.62;98934.13;5006204;28;20023;-83
2022/02/09 19:56:51;;;;;;;9.75;4.60;;;;;;;23.32;24.47;98925.97;5005501;28;20096;-82
2022/02/09 19:59:20;;;;;;;9.20;4.45;;;;;;;22.71;25.21;98937.84;5005091;28;20038;-83
2022/02/09 20:01:47;;;;;;;10.15;4.50;;;;;;;23.52;23.93;98940.31;5001538;28;20033;-83
2022/02/09 20:04:15;;;;;;;7.45;4.25;;;;;;;23.10;24.45;98935.72;5003022;28;20428;-84
2022/02/09 20:06:43;;;;;;;9.60;5.25;;;;;;;22.45;25.23;98936.28;5005490;28;20029;-82
2022/02/09 20:09:09;;;;;;;7.03;4.20;;;;;;;23.74;23.62;98930.56;5010085;28;20726;-82
2022/02/09 20:11:38;;;;;;;6.82;4.25;;;;;;;23.79;23.37;98941.34;5001745;28;20076;-82
2022/02/09 20:14:04;;;;;;;10.73;5.07;;;;;;;23.19;23.76;98945.28;5005927;28;20037;-81
2022/02/09 20:16:31;;;;;;;7.00;4.20;;;;;;;22.51;24.76;98948.66;5001239;28;20508;-83
2022/02/09 20:18:58;;;;;;;7.32;4.10;;;;;;;22.87;24.64;98946.59;5004215;28;20452;-81
2022/02/09 20:21:26;;;;;;;9.77;4.32;;;;;;;24.00;22.76;98949.59;5011012;28;20474;-83
2022/02/09 20:23:53;;;;;;;9.10;4.22;;;;;;;23.34;23.24;98945.97;5004784;28;20149;-82
2022/02/09 20:26:21;;;;;;;6.15;3.70;;;;;;;23.47;23.09;98949.16;5001786;28;20030;-82
2022/02/09 20:29:05;;;;;;;5.35;3.30;;;;;;;22.79;23.62;98953.41;5001702;28;20030;-82
2022/02/09 20:31:36;;;;;;;4.32;3.42;;;;;;;23.01;23.16;98952.94;5003400;28;20033;-83
2022/02/09 20:34:11;;;;;;;9.00;4.10;;;;;;;24.13;22.04;98945.13;5004355;28;20068;-83
2022/02/09 20:36:38;;;;;;;17.25;5.80;;;;;;;25.06;21.04;98943.78;5007075;28;20383;-84
2022/02/09 20:39:06;;;;;;;6.35;3.60;;;;;;;25.03;20.72;98936.19;5009193;28;20034;-84
2022/02/09 20:41:34;;;;;;;5.65;2.97;;;;;;;24.17;21.91;98954.31;5006532;28;20033;-84
2022/02/09 20:44:16;;;;;;;6.18;3.00;;;;;;;24.94;20.96;98951.94;5007903;28;20028;-83
2022/02/09 20:46:42;;;;;;;5.38;3.40;;;;;;;23.35;22.28;98953.22;5010520;28;20056;-84
2022/02/09 20:49:08;;;;;;;4.45;2.53;;;;;;;24.37;21.66;98949.69;5024321;28;20129;-82
2022/02/09 20:51:34;;;;;;;7.35;3.03;;;;;;;24.44;21.40;98934.78;5009807;28;20048;-82
2022/02/09 20:54:00;;;;;;;4.03;2.75;;;;;;;23.74;21.92;98944.56;5005200;28;20474;-82
2022/02/09 20:56:26;;;;;;;6.05;2.83;;;;;;;24.70;20.93;98942.56;5006035;28;20022;-82
2022/02/09 20:58:59;;;;;;;6.25;2.83;;;;;;;23.88;21.84;98936.84;5011591;28;20038;-82
2022/02/09 21:01:37;;;;;;;16.67;6.15;;;;;;;24.56;20.98;98937.88;5005201;28;20080;-83
2022/02/09 21:04:07;;;;;;;4.63;2.25;;;;;;;24.55;20.96;98933.47;5010437;28;20030;-82
2022/02/09 21:06:50;;;;;;;3.33;2.10;;;;;;;24.74;20.78;98932.06;5011540;28;20061;-82
2022/02/09 21:12:02;;;;;;;4.35;2.60;;;;;;;25.02;20.55;98931.75;5016887;28;20037;-82
2022/02/09 21:19:58;;;;;;;5.90;2.58;;;;;;;25.59;19.57;98914.16;5007477;28;20049;-82
2022/02/09 21:22:51;;;;;;;3.60;2.50;;;;;;;24.57;20.67;98913.41;5008424;28;20029;-82
2022/02/09 21:25:49;;;;;;;4.53;2.45;;;;;;;25.40;20.02;98910.78;5008441;28;20033;-82
2022/02/09 21:55:50;;;;;;;4.93;1.67;;;;;;;24.02;20.72;98925.53;5002619;28;20104;-83
2022/02/09 21:58:23;;;;;;;3.50;1.98;;;;;;;25.31;19.60;98920.97;5003471;28;20061;-83
2022/02/09 22:19:08;;;;;;;4.95;2.22;;;;;;;26.32;18.20;98917.84;5005073;28;20053;-83
2022/02/09 22:25:57;;;;;;;42.88;17.70;;;;;;;27.13;18.06;98905.00;5005962;28;20053;-83
2022/02/09 22:56:50;;;;;;;5.47;2.10;;;;;;;26.39;18.63;98902.81;5005430;28;20049;-83
2022/02/09 22:59:25;;;;;;;2.38;1.42;;;;;;;26.71;18.05;98891.75;5003216;28;20482;-83
2022/02/09 23:02:00;;;;;;;3.83;1.73;;;;;;;26.78;17.77;98888.81;4998885;28;20125;-83
2022/02/09 23:07:08;;;;;;;3.33;1.60;;;;;;;26.26;18.24;98897.00;5004465;28;20045;-84
2022/02/09 23:09:50;;;;;;;2.42;1.83;;;;;;;26.39;17.94;98894.38;5004613;28;20397;-83
2022/02/09 23:12:29;;;;;;;2.85;1.50;;;;;;;26.64;18.02;98892.69;5005692;28;20097;-83
2022/02/09 23:15:16;;;;;;;4.75;2.45;;;;;;;26.84;17.84;98887.06;5003912;28;20478;-84
2022/02/09 23:18:23;;;;;;;5.43;3.05;;;;;;;26.58;17.60;98896.44;5005582;28;20023;-83
